createdAt,value
2018-02-17T00:00:24.622Z,11.73
2018-02-17T00:02:52.137Z,10.33
2018-02-17T00:05:19.624Z,9.17
2018-02-17T00:07:47.300Z,10.50
2018-02-17T00:10:15.558Z,10.40
2018-02-17T00:12:43.069Z,12.40
2018-02-17T00:15:10.578Z,15.60
2018-02-17T00:17:38.058Z,12.73
2018-02-17T00:20:06.344Z,13.57
2018-02-17T00:22:34.583Z,13.20
2018-02-17T00:25:02.877Z,16.03
2018-02-17T00:27:30.368Z,14.50
2018-02-17T00:29:57.887Z,15.63
2018-02-17T00:32:25.375Z,15.83
2018-02-17T00:34:53.658Z,13.23
2018-02-17T00:37:21.891Z,12.80
2018-02-17T00:39:49.779Z,10.80
2018-02-17T00:42:18.043Z,9.77
2018-02-17T00:44:45.515Z,9.60
2018-02-17T00:47:13.022Z,9.53
2018-02-17T00:49:40.505Z,10.87
2018-02-17T00:52:08.012Z,7.63
2018-02-17T00:54:36.261Z,6.10
2018-02-17T00:57:03.754Z,9.53
2018-02-17T00:59:31.247Z,9.33
2018-02-17T01:01:58.750Z,8.50
2018-02-17T01:04:26.220Z,5.97
2018-02-17T01:06:54.476Z,5.63
2018-02-17T01:09:21.935Z,5.20
2018-02-17T01:11:49.432Z,4.87
2018-02-17T01:14:16.906Z,4.80
2018-02-17T01:16:44.441Z,4.37
2018-02-17T01:19:12.714Z,4.90
2018-02-17T01:21:40.960Z,5.87
2018-02-17T01:24:08.442Z,4.57
2018-02-17T01:26:35.924Z,3.83
2018-02-17T01:29:03.410Z,4.60
2018-02-17T01:31:30.879Z,3.63
2018-02-17T01:33:58.386Z,3.90
2018-02-17T01:36:25.855Z,3.83
2018-02-17T01:38:53.369Z,3.67
2018-02-17T01:41:20.837Z,4.27
2018-02-17T01:43:48.338Z,3.73
2018-02-17T01:46:15.828Z,4.30
2018-02-17T01:48:43.329Z,4.57
2018-02-17T01:51:11.592Z,3.67
2018-02-17T01:53:39.067Z,3.73
2018-02-17T01:56:07.295Z,3.63
2018-02-17T01:58:35.588Z,3.73
2018-02-17T02:01:03.939Z,3.53
2018-02-17T02:03:31.407Z,4.17
2018-02-17T02:05:58.899Z,4.10
2018-02-17T02:08:26.364Z,3.57
2018-02-17T02:10:54.635Z,3.97
2018-02-17T02:13:22.101Z,3.67
2018-02-17T02:15:50.376Z,5.00
2018-02-17T02:18:18.606Z,3.80
2018-02-17T02:20:46.104Z,3.93
2018-02-17T02:23:14.335Z,3.87
2018-02-17T02:25:41.838Z,4.03
2018-02-17T02:28:09.299Z,3.63
2018-02-17T02:30:37.573Z,3.77
2018-02-17T02:33:05.833Z,3.80
2018-02-17T02:35:33.339Z,4.00
2018-02-17T02:38:00.847Z,3.87
2018-02-17T02:40:28.340Z,3.73
2018-02-17T02:42:56.559Z,3.63
2018-02-17T02:45:24.056Z,3.90
2018-02-17T02:47:52.440Z,3.90
2018-02-17T02:50:19.944Z,4.50
2018-02-17T02:52:47.424Z,4.20
2018-02-17T02:55:14.923Z,3.87
2018-02-17T02:57:43.139Z,3.90
2018-02-17T03:00:10.641Z,3.60
2018-02-17T03:02:38.145Z,4.23
2018-02-17T03:05:05.627Z,3.87
2018-02-17T03:07:33.122Z,4.40
2018-02-17T03:10:00.588Z,4.53
2018-02-17T03:12:28.838Z,4.63
2018-02-17T03:14:56.316Z,4.40
2018-02-17T03:17:23.790Z,5.30
2018-02-17T03:19:51.263Z,4.83
2018-02-17T03:22:18.780Z,5.00
2018-02-17T03:24:46.854Z,5.43
2018-02-17T03:27:14.322Z,5.53
2018-02-17T03:29:41.849Z,5.53
2018-02-17T03:32:09.313Z,5.63
2018-02-17T03:34:36.822Z,5.60
2018-02-17T03:37:04.295Z,5.87
2018-02-17T03:39:31.782Z,4.63
2018-02-17T03:41:59.251Z,5.33
2018-02-17T03:44:26.734Z,6.33
2018-02-17T03:46:54.959Z,5.83
2018-02-17T03:49:22.453Z,5.70
2018-02-17T03:51:50.692Z,5.57
2018-02-17T03:54:18.205Z,5.57
2018-02-17T03:56:45.663Z,5.80
2018-02-17T03:59:13.156Z,5.97
2018-02-17T04:01:40.616Z,6.17
2018-02-17T04:04:08.118Z,5.77
2018-02-17T04:06:36.368Z,6.57
2018-02-17T04:09:04.256Z,6.27
2018-02-17T04:11:32.497Z,6.10
2018-02-17T04:13:59.963Z,6.20
2018-02-17T04:16:27.461Z,5.77
2018-02-17T04:18:55.038Z,6.97
2018-02-17T04:21:22.522Z,6.67
2018-02-17T04:23:49.996Z,6.73
2018-02-17T04:26:17.491Z,6.67
2018-02-17T04:28:44.972Z,6.20
2018-02-17T04:31:12.491Z,5.70
2018-02-17T04:33:40.722Z,6.80
2018-02-17T04:36:08.222Z,7.30
2018-02-17T04:38:36.467Z,6.73
2018-02-17T04:41:05.678Z,6.93
2018-02-17T04:43:35.069Z,7.10
2018-02-17T04:46:15.296Z,6.70
2018-02-17T04:48:57.645Z,7.00
2018-02-17T04:51:25.160Z,7.03
2018-02-17T04:54:09.349Z,7.73
2018-02-17T04:56:37.306Z,7.20
2018-02-17T04:59:10.566Z,7.47
2018-02-17T05:01:54.820Z,8.97
2018-02-17T05:04:26.147Z,9.27
2018-02-17T05:07:06.363Z,8.37
2018-02-17T05:09:33.838Z,8.03
2018-02-17T05:12:02.091Z,7.87
2018-02-17T05:14:44.513Z,7.60
2018-02-17T05:17:17.734Z,8.60
2018-02-17T05:19:47.105Z,8.20
2018-02-17T05:22:29.493Z,8.70
2018-02-17T05:25:11.853Z,7.80
2018-02-17T05:27:42.188Z,8.53
2018-02-17T05:30:10.241Z,8.90
2018-02-17T05:32:41.416Z,10.27
2018-02-17T05:35:23.772Z,9.37
2018-02-17T05:37:52.045Z,9.47
2018-02-17T05:40:22.099Z,10.20
2018-02-17T05:42:49.699Z,9.63
2018-02-17T05:45:18.994Z,10.70
2018-02-17T05:48:02.123Z,11.50
2018-02-17T05:50:39.507Z,10.63
2018-02-17T05:53:07.046Z,10.33
2018-02-17T05:55:34.546Z,10.90
2018-02-17T05:58:02.021Z,12.90
2018-02-17T06:00:30.296Z,12.77
2018-02-17T06:02:58.532Z,13.47
2018-02-17T06:05:26.031Z,14.57
2018-02-17T06:07:54.281Z,14.30
2018-02-17T06:10:21.782Z,14.73
2018-02-17T06:12:49.251Z,15.60
2018-02-17T06:15:16.760Z,14.50
2018-02-17T06:17:44.265Z,15.43
2018-02-17T06:20:11.748Z,14.53
2018-02-17T06:22:39.225Z,16.20
2018-02-17T06:25:06.738Z,17.20
2018-02-17T06:27:34.214Z,16.00
2018-02-17T06:30:01.723Z,16.43
2018-02-17T06:32:30.325Z,14.40
2018-02-17T06:34:58.068Z,15.60
2018-02-17T06:37:26.310Z,15.63
2018-02-17T06:39:53.799Z,14.63
2018-02-17T06:42:22.060Z,13.30
2018-02-17T06:44:49.540Z,12.37
2018-02-17T06:47:17.818Z,12.50
2018-02-17T06:49:46.047Z,13.00
2018-02-17T06:52:13.564Z,13.77
2018-02-17T06:54:41.052Z,12.97
2018-02-17T06:57:09.316Z,11.27
2018-02-17T06:59:36.810Z,13.00
2018-02-17T07:02:04.324Z,13.60
2018-02-17T07:04:31.803Z,14.33
2018-02-17T07:06:59.325Z,15.83
2018-02-17T07:09:26.811Z,14.73
2018-02-17T07:11:54.351Z,12.90
2018-02-17T07:14:21.826Z,12.70
2018-02-17T07:16:49.332Z,12.17
2018-02-17T07:19:17.556Z,13.47
2018-02-17T07:21:45.048Z,12.67
2018-02-17T07:24:12.539Z,12.93
2018-02-17T07:26:40.807Z,12.70
2018-02-17T07:29:09.040Z,13.17
2018-02-17T07:31:36.552Z,12.60
2018-02-17T07:34:04.015Z,13.47
2018-02-17T07:36:31.512Z,13.70
2018-02-17T07:38:58.982Z,14.50
2018-02-17T07:41:26.489Z,14.90
2018-02-17T07:43:53.990Z,17.17
2018-02-17T07:46:21.496Z,17.53
2018-02-17T07:48:49.752Z,16.50
2018-02-17T07:51:18.445Z,18.20
2018-02-17T07:53:46.685Z,19.77
2018-02-17T07:56:14.151Z,17.97
2018-02-17T07:58:41.736Z,17.93
2018-02-17T08:01:09.959Z,18.43
2018-02-17T08:03:37.458Z,17.73
2018-02-17T08:06:04.969Z,17.13
2018-02-17T08:08:32.448Z,18.90
2018-02-17T08:11:00.034Z,18.83
2018-02-17T08:13:27.525Z,16.60
2018-02-17T08:15:55.365Z,17.93
2018-02-17T08:18:22.847Z,18.67
2018-02-17T08:20:50.307Z,16.57
2018-02-17T08:23:17.797Z,19.13
2018-02-17T08:25:45.300Z,17.27
2018-02-17T08:28:13.582Z,17.57
2018-02-17T08:30:41.880Z,21.83
2018-02-17T08:33:09.364Z,20.70
2018-02-17T08:35:36.868Z,18.90
2018-02-17T08:38:05.130Z,19.97
2018-02-17T08:40:33.527Z,18.73
2018-02-17T08:43:01.802Z,20.23
2018-02-17T08:45:29.305Z,20.63
2018-02-17T08:47:56.806Z,19.57
2018-02-17T08:50:24.281Z,22.30
2018-02-17T08:52:52.566Z,22.67
2018-02-17T08:55:20.058Z,20.20
2018-02-17T08:57:47.570Z,20.53
2018-02-17T09:00:15.822Z,20.13
2018-02-17T09:02:43.331Z,18.57
2018-02-17T09:05:10.825Z,20.47
2018-02-17T09:07:38.333Z,21.47
2018-02-17T09:10:05.858Z,21.27
2018-02-17T09:12:33.370Z,22.17
2018-02-17T09:15:00.872Z,23.57
2018-02-17T09:17:28.372Z,21.33
2018-02-17T09:19:55.859Z,26.90
2018-02-17T09:22:23.365Z,26.30
2018-02-17T09:24:51.619Z,23.10
2018-02-17T09:27:19.239Z,25.10
2018-02-17T09:29:47.146Z,22.73
2018-02-17T09:32:14.652Z,23.47
2018-02-17T09:34:42.172Z,25.73
2018-02-17T09:37:09.673Z,23.07
2018-02-17T09:39:37.135Z,29.77
2018-02-17T09:42:04.636Z,23.23
2018-02-17T09:44:32.160Z,23.20
2018-02-17T09:46:59.680Z,21.97
2018-02-17T09:49:27.919Z,21.87
2018-02-17T09:51:55.415Z,23.20
2018-02-17T09:54:23.658Z,23.17
2018-02-17T09:56:51.129Z,21.80
2018-02-17T09:59:18.636Z,25.90
2018-02-17T10:01:46.131Z,24.13
2018-02-17T10:04:13.615Z,23.53
2018-02-17T10:06:41.873Z,35.00
2018-02-17T10:09:09.375Z,22.57
2018-02-17T10:11:36.862Z,34.47
2018-02-17T10:14:04.369Z,24.13
2018-02-17T10:16:32.604Z,26.73
2018-02-17T10:19:00.879Z,23.53
2018-02-17T10:21:28.398Z,21.90
2018-02-17T10:23:56.285Z,28.90
2018-02-17T10:26:23.777Z,25.70
2018-02-17T10:28:51.256Z,18.33
2018-02-17T10:31:18.765Z,24.27
2018-02-17T10:33:46.226Z,19.90
2018-02-17T10:36:13.742Z,18.03
2018-02-17T10:38:42.013Z,22.20
2018-02-17T10:41:10.284Z,18.93
2018-02-17T10:43:38.507Z,24.30
2018-02-17T10:46:06.021Z,18.57
2018-02-17T10:48:34.269Z,19.17
2018-02-17T10:51:01.766Z,21.80
2018-02-17T10:53:30.003Z,19.73
2018-02-17T10:55:57.518Z,31.00
2018-02-17T10:58:24.993Z,17.93
2018-02-17T11:00:52.489Z,18.17
2018-02-17T11:03:19.973Z,16.40
2018-02-17T11:05:48.257Z,14.23
2018-02-17T11:08:15.724Z,17.27
2018-02-17T11:10:43.236Z,16.90
2018-02-17T11:13:10.715Z,14.30
2018-02-17T11:15:38.226Z,17.23
2018-02-17T11:18:05.709Z,14.07
2018-02-17T11:20:33.598Z,16.50
2018-02-17T11:23:01.123Z,18.03
2018-02-17T11:25:28.587Z,15.40
2018-02-17T11:27:56.094Z,23.10
2018-02-17T11:30:23.563Z,19.63
2018-02-17T11:32:51.062Z,13.20
2018-02-17T11:35:18.533Z,14.27
2018-02-17T11:37:46.042Z,13.30
2018-02-17T11:40:13.531Z,15.90
2018-02-17T11:42:41.030Z,16.47
2018-02-17T11:45:08.495Z,10.50
2018-02-17T11:47:36.000Z,12.00
2018-02-17T11:50:03.459Z,12.47
2018-02-17T11:52:30.966Z,11.70
2018-02-17T11:54:58.420Z,9.73
2018-02-17T11:57:25.915Z,10.13
2018-02-17T11:59:53.386Z,10.50
2018-02-17T12:02:20.897Z,11.10
2018-02-17T12:04:48.359Z,11.13
2018-02-17T12:07:15.869Z,11.73
2018-02-17T12:09:43.358Z,9.60
2018-02-17T12:12:11.623Z,12.60
2018-02-17T12:14:39.868Z,11.13
2018-02-17T12:17:07.411Z,13.93
2018-02-17T12:19:34.883Z,9.97
2018-02-17T12:22:02.440Z,9.13
2018-02-17T12:24:29.927Z,11.10
2018-02-17T12:26:57.417Z,9.03
2018-02-17T12:29:24.900Z,10.00
2018-02-17T12:31:52.418Z,8.93
2018-02-17T12:34:20.734Z,12.13
2018-02-17T12:36:48.198Z,8.43
2018-02-17T12:39:15.684Z,7.60
2018-02-17T12:41:43.155Z,7.93
2018-02-17T12:44:11.410Z,6.40
2018-02-17T12:46:38.873Z,8.33
2018-02-17T12:51:40.172Z,10.77
2018-02-17T12:54:08.454Z,9.37
2018-02-17T12:56:35.914Z,10.33
2018-02-17T12:59:03.441Z,10.70
2018-02-17T13:01:30.919Z,13.80
2018-02-17T13:03:59.192Z,13.23
2018-02-17T13:06:27.431Z,10.77
2018-02-17T13:08:54.974Z,13.97
2018-02-17T13:11:22.444Z,13.70
2018-02-17T13:13:50.180Z,10.43
2018-02-17T13:16:18.513Z,9.53
2018-02-17T13:18:46.758Z,10.17
2018-02-17T13:21:14.270Z,22.60
2018-02-17T13:23:41.737Z,12.67
2018-02-17T13:26:09.238Z,12.40
2018-02-17T13:28:36.712Z,16.63
2018-02-17T13:31:04.204Z,13.97
2018-02-17T13:33:31.709Z,16.97
2018-02-17T13:35:59.203Z,18.53
2018-02-17T13:38:27.457Z,21.27
2018-02-17T13:40:54.969Z,17.50
2018-02-17T13:43:22.444Z,16.23
2018-02-17T13:45:49.932Z,15.13
2018-02-17T13:48:18.459Z,15.67
2018-02-17T13:50:45.968Z,14.43
2018-02-17T13:53:13.436Z,15.10
2018-02-17T13:55:41.695Z,22.27
2018-02-17T13:58:09.163Z,22.30
2018-02-17T14:00:36.668Z,14.47
2018-02-17T14:03:04.166Z,14.10
2018-02-17T14:05:31.658Z,20.50
2018-02-17T14:08:00.248Z,26.33
2018-02-17T14:10:27.852Z,22.80
2018-02-17T14:12:55.346Z,22.77
2018-02-17T14:15:23.635Z,18.13
2018-02-17T14:17:51.876Z,17.67
2018-02-17T14:20:19.401Z,16.13
2018-02-17T14:22:46.899Z,20.50
2018-02-17T14:25:14.399Z,18.03
2018-02-17T14:27:41.873Z,23.00
2018-02-17T14:30:09.370Z,23.53
2018-02-17T14:32:36.854Z,16.60
2018-02-17T14:35:05.135Z,16.80
2018-02-17T14:37:33.389Z,15.97
2018-02-17T14:40:01.208Z,24.43
2018-02-17T14:42:28.673Z,17.10
2018-02-17T14:44:56.156Z,17.80
2018-02-17T14:47:23.659Z,21.67
2018-02-17T14:49:51.895Z,18.83
2018-02-17T14:52:19.527Z,20.53
2018-02-17T14:54:47.846Z,21.10
2018-02-17T14:57:15.340Z,23.67
2018-02-17T14:59:42.816Z,29.57
2018-02-17T15:02:10.308Z,21.37
2018-02-17T15:04:37.775Z,19.20
2018-02-17T15:07:05.284Z,18.50
2018-02-17T15:09:43.552Z,27.80
2018-02-17T15:12:11.821Z,20.67
2018-02-17T15:14:39.327Z,21.63
2018-02-17T15:17:06.841Z,20.67
2018-02-17T15:19:34.339Z,19.83
2018-02-17T15:22:01.850Z,25.57
2018-02-17T15:24:29.314Z,22.93
2018-02-17T15:26:57.580Z,22.13
2018-02-17T15:29:25.061Z,28.47
2018-02-17T15:31:53.358Z,21.83
2018-02-17T15:34:20.840Z,19.47
2018-02-17T15:36:48.330Z,23.23
2018-02-17T15:39:15.829Z,19.43
2018-02-17T15:41:43.326Z,20.03
2018-02-17T15:44:11.587Z,21.10
2018-02-17T15:46:39.248Z,21.70
2018-02-17T15:49:06.723Z,20.87
2018-02-17T15:51:34.208Z,22.30
2018-02-17T15:54:02.480Z,21.50
2018-02-17T15:56:29.974Z,22.10
2018-02-17T15:58:57.509Z,19.13
2018-02-17T16:01:25.755Z,17.67
2018-02-17T16:03:53.277Z,23.10
2018-02-17T16:06:20.759Z,24.90
2018-02-17T16:08:48.265Z,19.83
2018-02-17T16:11:16.518Z,22.40
2018-02-17T16:13:44.042Z,25.53
2018-02-17T16:16:11.511Z,23.77
2018-02-17T16:18:39.026Z,23.50
2018-02-17T16:21:06.496Z,25.60
2018-02-17T16:23:34.028Z,20.63
2018-02-17T16:26:02.294Z,28.77
2018-02-17T16:28:29.768Z,23.50
2018-02-17T16:30:58.027Z,28.83
2018-02-17T16:33:25.513Z,28.67
2018-02-17T16:35:53.101Z,45.13
2018-02-17T16:38:20.571Z,26.13
2018-02-17T16:40:48.692Z,25.87
2018-02-17T16:43:16.179Z,39.87
2018-02-17T16:45:43.691Z,28.47
2018-02-17T16:48:11.198Z,29.57
2018-02-17T16:50:38.673Z,25.23
2018-02-17T16:53:06.950Z,32.53
2018-02-17T16:55:34.442Z,30.17
2018-02-17T16:58:01.961Z,33.00
2018-02-17T17:00:29.430Z,29.17
2018-02-17T17:02:57.712Z,34.40
2018-02-17T17:05:25.167Z,29.60
2018-02-17T17:07:52.677Z,36.40
2018-02-17T17:10:20.158Z,29.00
2018-02-17T17:12:47.643Z,33.57
2018-02-17T17:15:15.154Z,31.70
2018-02-17T17:17:42.630Z,32.33
2018-02-17T17:20:10.123Z,36.17
2018-02-17T17:22:38.432Z,30.73
2018-02-17T17:25:06.719Z,26.83
2018-02-17T17:27:34.195Z,25.33
2018-02-17T17:30:01.728Z,30.13
2018-02-17T17:32:29.274Z,36.13
2018-02-17T17:34:57.550Z,32.73
2018-02-17T17:37:26.412Z,32.17
2018-02-17T17:39:53.978Z,29.63
2018-02-17T17:42:21.455Z,27.50
2018-02-17T17:44:49.753Z,26.97
2018-02-17T17:47:17.242Z,39.40
2018-02-17T17:49:44.769Z,37.27
2018-02-17T17:52:12.251Z,41.60
2018-02-17T17:54:39.788Z,37.73
2018-02-17T17:57:07.268Z,41.27
2018-02-17T17:59:34.780Z,44.30
2018-02-17T18:02:02.268Z,53.47
2018-02-17T18:04:30.150Z,47.80
2018-02-17T18:06:57.636Z,48.03
2018-02-17T18:09:26.209Z,45.90
2018-02-17T18:11:53.726Z,43.17
2018-02-17T18:14:21.188Z,52.43
2018-02-17T18:16:48.725Z,41.00
2018-02-17T18:19:16.234Z,34.40
2018-02-17T18:21:43.731Z,33.43
2018-02-17T18:24:11.203Z,35.67
2018-02-17T18:26:39.675Z,37.20
2018-02-17T18:29:07.928Z,40.33
2018-02-17T18:31:35.433Z,34.80
2018-02-17T18:34:02.904Z,42.83
2018-02-17T18:36:30.385Z,42.90
2018-02-17T18:38:57.891Z,44.27
2018-02-17T18:41:26.151Z,48.53
2018-02-17T18:43:54.427Z,44.10
2018-02-17T18:46:21.896Z,57.60
2018-02-17T18:48:49.424Z,44.53
2018-02-17T18:51:16.911Z,47.20
2018-02-17T18:53:45.166Z,43.87
2018-02-17T18:56:13.146Z,59.67
2018-02-17T18:58:41.435Z,61.33
2018-02-17T19:01:09.694Z,76.67
2018-02-17T19:03:37.227Z,80.57
2018-02-17T19:06:04.713Z,79.00
2018-02-17T19:08:32.217Z,45.20
2018-02-17T19:10:59.727Z,40.10
2018-02-17T19:13:27.232Z,53.20
2018-02-17T19:15:54.845Z,44.00
2018-02-17T19:18:23.149Z,45.07
2018-02-17T19:20:50.627Z,48.03
2018-02-17T19:23:18.209Z,45.20
2018-02-17T19:25:45.676Z,46.90
2018-02-17T19:28:13.175Z,68.73
2018-02-17T19:30:40.679Z,44.83
2018-02-17T19:33:08.173Z,59.80
2018-02-17T19:35:35.693Z,64.73
2018-02-17T19:38:03.186Z,51.63
2018-02-17T19:40:30.711Z,57.23
2018-02-17T19:42:58.209Z,57.60
2018-02-17T19:45:26.576Z,44.57
2018-02-17T19:47:54.069Z,50.03
2018-02-17T19:50:21.602Z,56.80
2018-02-17T19:52:49.086Z,60.27
2018-02-17T19:55:16.966Z,66.50
2018-02-17T19:57:44.439Z,83.73
2018-02-17T20:00:11.907Z,55.67
2018-02-17T20:02:39.445Z,48.07
2018-02-17T20:05:06.948Z,56.70
2018-02-17T20:07:34.464Z,49.00
2018-02-17T20:10:02.018Z,63.60
2018-02-17T20:12:29.536Z,56.13
2018-02-17T20:14:57.798Z,55.80
2018-02-17T20:17:25.312Z,49.43
2018-02-17T20:19:52.804Z,61.87
2018-02-17T20:22:20.405Z,53.87
2018-02-17T20:24:48.659Z,50.93
2018-02-17T20:27:16.170Z,49.20
2018-02-17T20:29:43.722Z,62.20
2018-02-17T20:32:11.657Z,66.13
2018-02-17T20:34:39.969Z,60.07
2018-02-17T20:37:07.492Z,62.27
2018-02-17T20:39:35.751Z,56.37
2018-02-17T20:42:05.588Z,65.50
2018-02-17T20:44:33.157Z,101.07
2018-02-17T20:47:00.687Z,82.33
2018-02-17T20:49:28.182Z,52.30
2018-02-17T20:51:55.731Z,75.97
2018-02-17T20:54:23.216Z,72.60
2018-02-17T20:56:50.834Z,98.90
2018-02-17T20:59:19.131Z,119.23
2018-02-17T21:01:46.704Z,95.03
2018-02-17T21:04:15.024Z,94.47
2018-02-17T21:06:42.531Z,85.40
2018-02-17T21:09:10.035Z,74.43
2018-02-17T21:11:37.546Z,58.03
2018-02-17T21:14:05.050Z,50.77
2018-02-17T21:16:32.582Z,51.17
2018-02-17T21:19:00.078Z,60.23
2018-02-17T21:21:27.574Z,47.07
2018-02-17T21:23:55.148Z,51.47
2018-02-17T21:26:22.682Z,41.77
2018-02-17T21:28:50.944Z,54.83
2018-02-17T21:31:18.474Z,52.27
2018-02-17T21:33:45.960Z,63.07
2018-02-17T21:36:13.434Z,61.97
2018-02-17T21:38:41.719Z,60.23
2018-02-17T21:41:09.204Z,64.73
2018-02-17T21:43:36.734Z,70.57
2018-02-17T21:46:04.225Z,68.03
2018-02-17T21:48:31.733Z,49.73
2018-02-17T21:50:59.987Z,47.03
2018-02-17T21:53:27.608Z,56.77
2018-02-17T21:55:55.096Z,52.40
2018-02-17T21:58:22.620Z,57.67
2018-02-17T22:00:50.178Z,69.27
2018-02-17T22:03:17.675Z,55.33
2018-02-17T22:05:45.196Z,52.27
2018-02-17T22:08:12.721Z,43.83
2018-02-17T22:10:40.986Z,52.63
2018-02-17T22:13:08.537Z,53.20
2018-02-17T22:15:36.020Z,50.47
2018-02-17T22:18:05.291Z,42.30
2018-02-17T22:20:32.786Z,51.20
2018-02-17T22:23:00.293Z,56.37
2018-02-17T22:25:27.922Z,48.53
2018-02-17T22:27:55.387Z,51.10
2018-02-17T22:30:22.918Z,43.87
2018-02-17T22:32:51.179Z,44.03
2018-02-17T22:35:19.480Z,39.77
2018-02-17T22:37:47.713Z,43.13
2018-02-17T22:40:15.232Z,45.17
2018-02-17T22:42:42.716Z,43.37
2018-02-17T22:45:10.405Z,41.97
2018-02-17T22:47:38.825Z,42.77
2018-02-17T22:50:06.344Z,40.63
2018-02-17T22:52:34.607Z,39.47
2018-02-17T22:55:02.116Z,37.10
2018-02-17T22:57:29.623Z,36.10
2018-02-17T22:59:57.234Z,49.03
2018-02-17T23:02:24.757Z,41.80
2018-02-17T23:04:52.309Z,53.07
2018-02-17T23:07:19.794Z,44.93
2018-02-17T23:09:47.310Z,50.63
2018-02-17T23:12:14.781Z,47.67
2018-02-17T23:14:42.315Z,45.37
2018-02-17T23:17:09.808Z,46.53
2018-02-17T23:19:38.066Z,44.30
2018-02-17T23:22:05.680Z,43.97
2018-02-17T23:24:33.174Z,43.87
2018-02-17T23:27:00.689Z,44.37
2018-02-17T23:29:28.254Z,42.73
2018-02-17T23:31:55.769Z,43.27
2018-02-17T23:34:23.252Z,42.23
2018-02-17T23:36:50.760Z,40.07
2018-02-17T23:39:18.271Z,46.00
2018-02-17T23:41:45.778Z,43.47
2018-02-17T23:44:13.275Z,39.33
2018-02-17T23:46:41.562Z,41.50
2018-02-17T23:49:09.833Z,41.40
2018-02-17T23:51:38.080Z,45.97
2018-02-17T23:54:05.582Z,43.97
2018-02-17T23:56:33.068Z,39.10
2018-02-17T23:59:00.587Z,55.57
